createdAt,value
2022-11-05T00:03:35.847Z,1.30
2022-11-05T00:07:17.780Z,1.40
2022-11-05T00:10:43.799Z,1.50
2022-11-05T00:14:25.786Z,1.58
2022-11-05T00:17:51.799Z,1.30
2022-11-05T00:21:38.799Z,1.50
2022-11-05T00:25:19.810Z,1.30
2022-11-05T00:28:45.772Z,1.40
2022-11-05T00:32:08.836Z,1.20
2022-11-05T00:35:34.758Z,1.42
2022-11-05T00:38:58.808Z,1.23
2022-11-05T00:42:40.805Z,1.60
2022-11-05T00:46:04.795Z,1.70
2022-11-05T00:49:38.823Z,1.60
2022-11-05T00:53:10.121Z,1.20
2022-11-05T00:56:34.848Z,1.58
2022-11-05T00:59:58.788Z,1.40
2022-11-05T01:03:25.828Z,2.20
2022-11-05T01:06:50.199Z,1.23
2022-11-05T01:10:15.010Z,1.90
2022-11-05T01:13:37.840Z,2.10
2022-11-05T01:17:01.815Z,2.08
2022-11-05T01:20:26.049Z,1.67
2022-11-05T01:23:50.705Z,1.95
2022-11-05T01:27:15.813Z,1.95
2022-11-05T01:30:39.907Z,1.63
2022-11-05T01:34:03.876Z,1.40
2022-11-05T01:37:29.440Z,1.60
2022-11-05T01:40:57.836Z,1.33
2022-11-05T01:44:14.423Z,1.30
2022-11-05T01:47:49.886Z,1.45
2022-11-05T01:51:17.734Z,1.40
2022-11-05T01:54:43.852Z,1.40
2022-11-05T01:58:09.824Z,1.80
2022-11-05T02:01:33.924Z,1.70
2022-11-05T02:05:01.840Z,1.60
2022-11-05T02:08:31.874Z,1.60
2022-11-05T02:11:55.846Z,1.77
2022-11-05T02:15:19.907Z,1.48
2022-11-05T02:18:55.818Z,1.30
2022-11-05T02:22:35.718Z,1.52
2022-11-05T02:26:38.752Z,1.70
2022-11-05T02:30:26.242Z,1.60
2022-11-05T02:34:10.856Z,1.40
2022-11-05T02:37:56.894Z,1.70
2022-11-05T02:41:27.896Z,1.38
2022-11-05T02:45:25.874Z,1.70
2022-11-05T02:48:58.848Z,1.63
2022-11-05T02:52:46.877Z,1.60
2022-11-05T02:56:16.849Z,1.52
2022-11-05T02:59:40.887Z,2.15
2022-11-05T03:03:03.930Z,1.80
2022-11-05T03:06:49.856Z,1.50
2022-11-05T03:10:30.874Z,1.90
2022-11-05T03:14:22.903Z,2.00
2022-11-05T03:18:10.887Z,1.88
2022-11-05T03:21:38.882Z,1.58
2022-11-05T03:25:05.900Z,1.38
2022-11-05T03:28:29.870Z,1.75
2022-11-05T03:31:54.900Z,1.80
2022-11-05T03:35:23.877Z,1.70
2022-11-05T03:38:49.903Z,2.03
2022-11-05T03:42:06.458Z,1.63
2022-11-05T03:45:29.908Z,1.70
2022-11-05T03:49:00.942Z,1.90
2022-11-05T03:52:30.917Z,1.80
2022-11-05T03:56:04.986Z,1.77
2022-11-05T03:59:28.888Z,1.85
2022-11-05T04:02:54.833Z,1.85
2022-11-05T04:06:40.715Z,1.83
2022-11-05T04:10:23.899Z,2.03
2022-11-05T04:13:47.887Z,1.83
2022-11-05T04:17:15.173Z,1.75
2022-11-05T04:20:56.890Z,1.83
2022-11-05T04:24:20.936Z,1.83
2022-11-05T04:27:44.584Z,1.85
2022-11-05T04:31:08.893Z,2.10
2022-11-05T04:34:32.926Z,1.70
2022-11-05T04:37:56.921Z,1.90
2022-11-05T04:41:32.325Z,1.70
2022-11-05T04:44:50.528Z,1.70
2022-11-05T04:48:08.945Z,1.70
2022-11-05T04:51:32.919Z,2.67
2022-11-05T04:54:56.948Z,2.72
2022-11-05T04:58:20.363Z,1.50
2022-11-05T05:01:44.963Z,1.58
2022-11-05T05:05:10.063Z,1.30
2022-11-05T05:08:33.926Z,1.70
2022-11-05T05:11:57.942Z,1.50
2022-11-05T05:15:23.961Z,1.50
2022-11-05T05:18:47.929Z,2.17
2022-11-05T05:22:12.292Z,1.30
2022-11-05T05:25:34.910Z,1.50
2022-11-05T05:28:59.952Z,1.10
2022-11-05T05:32:22.948Z,1.23
2022-11-05T05:35:46.948Z,1.58
2022-11-05T05:39:11.847Z,1.92
2022-11-05T05:42:42.719Z,1.55
2022-11-05T05:46:07.957Z,3.00
2022-11-05T05:49:32.296Z,1.50
2022-11-05T05:52:56.032Z,1.40
2022-11-05T05:56:22.939Z,1.40
2022-11-05T05:59:47.069Z,2.30
2022-11-05T06:03:14.376Z,2.53
2022-11-05T06:06:38.958Z,1.90
2022-11-05T06:10:03.946Z,1.50
2022-11-05T06:13:27.981Z,1.50
2022-11-05T06:16:50.943Z,1.50
2022-11-05T06:20:16.979Z,1.98
2022-11-05T06:23:41.972Z,1.90
2022-11-05T06:27:06.959Z,1.70
2022-11-05T06:30:32.095Z,1.98
2022-11-05T06:33:56.940Z,1.30
2022-11-05T06:37:21.009Z,2.28
2022-11-05T06:40:44.961Z,1.80
2022-11-05T06:44:07.968Z,1.80
2022-11-05T06:47:31.992Z,2.40
2022-11-05T06:50:59.959Z,2.13
2022-11-05T06:54:23.988Z,2.50
2022-11-05T06:57:52.942Z,2.65
2022-11-05T07:01:23.230Z,2.50
2022-11-05T07:04:46.952Z,2.78
2022-11-05T07:08:10.036Z,2.28
2022-11-05T07:11:34.036Z,1.98
2022-11-05T07:14:58.027Z,1.42
2022-11-05T07:18:23.047Z,1.50
2022-11-05T07:21:47.006Z,1.90
2022-11-05T07:25:12.960Z,2.10
2022-11-05T07:28:36.035Z,1.70
2022-11-05T07:32:00.281Z,3.03
2022-11-05T07:35:24.002Z,2.60
2022-11-05T07:38:47.959Z,3.65
2022-11-05T07:42:12.023Z,4.55
2022-11-05T07:45:36.340Z,3.42
2022-11-05T07:48:59.999Z,3.40
2022-11-05T07:52:23.951Z,3.70
2022-11-05T07:55:47.994Z,4.30
2022-11-05T07:59:12.608Z,5.03
2022-11-05T08:02:36.154Z,6.40
2022-11-05T08:06:01.995Z,5.15
2022-11-05T08:09:25.023Z,3.03
2022-11-05T08:12:48.997Z,2.20
2022-11-05T08:16:13.018Z,2.80
2022-11-05T08:19:36.004Z,2.50
2022-11-05T08:23:00.018Z,2.30
2022-11-05T08:26:25.022Z,2.40
2022-11-05T08:29:48.993Z,3.78
2022-11-05T08:33:31.022Z,2.72
2022-11-05T08:36:54.982Z,2.28
2022-11-05T08:40:19.036Z,1.70
2022-11-05T08:43:41.984Z,2.00
2022-11-05T08:47:05.025Z,1.40
2022-11-05T08:50:22.578Z,1.92
2022-11-05T08:53:40.042Z,3.35
2022-11-05T08:57:02.977Z,5.63
2022-11-05T09:00:29.039Z,11.80
2022-11-05T09:03:54.016Z,4.07
2022-11-05T09:07:17.051Z,2.88
2022-11-05T09:10:42.005Z,2.95
2022-11-05T09:14:05.054Z,3.42
2022-11-05T09:17:32.078Z,2.92
2022-11-05T09:20:57.017Z,3.58
2022-11-05T09:24:21.677Z,3.30
2022-11-05T09:27:46.018Z,4.00
2022-11-05T09:31:10.043Z,4.40
2022-11-05T09:34:32.998Z,4.00
2022-11-05T09:38:00.805Z,4.28
2022-11-05T09:41:37.046Z,4.43
2022-11-05T09:45:04.059Z,4.97
2022-11-05T09:48:31.063Z,3.60
2022-11-05T09:51:50.252Z,3.03
2022-11-05T09:55:07.039Z,2.75
2022-11-05T09:58:38.629Z,2.42
2022-11-05T10:02:02.242Z,3.03
2022-11-05T10:05:30.907Z,2.78
2022-11-05T10:08:58.067Z,3.22
2022-11-05T10:12:48.024Z,2.60
2022-11-05T10:16:19.065Z,3.15
2022-11-05T10:19:59.015Z,3.38
2022-11-05T10:23:35.081Z,3.10
2022-11-05T10:26:58.020Z,3.17
2022-11-05T10:30:22.107Z,3.08
2022-11-05T10:34:01.395Z,2.72
2022-11-05T10:37:25.207Z,3.00
2022-11-05T10:40:58.047Z,2.72
2022-11-05T10:44:53.065Z,2.60
2022-11-05T10:48:26.072Z,2.53
2022-11-05T10:51:50.065Z,2.45
2022-11-05T10:55:16.079Z,2.67
2022-11-05T10:58:50.070Z,2.45
2022-11-05T11:02:25.624Z,2.30
2022-11-05T11:05:55.057Z,2.20
2022-11-05T11:09:24.095Z,4.10
2022-11-05T11:12:53.045Z,4.95
2022-11-05T11:16:35.106Z,5.10
2022-11-05T11:20:00.732Z,6.00
2022-11-05T11:23:31.082Z,9.07
2022-11-05T11:26:56.095Z,4.43
2022-11-05T11:30:21.083Z,3.50
2022-11-05T11:33:44.088Z,4.18
2022-11-05T11:37:22.075Z,3.63
2022-11-05T11:40:50.098Z,2.70
2022-11-05T11:44:35.090Z,2.83
2022-11-05T11:48:02.102Z,2.97
2022-11-05T11:51:48.050Z,2.95
2022-11-05T11:55:37.613Z,3.67
2022-11-05T11:59:09.090Z,4.25
2022-11-05T12:03:07.485Z,3.85
2022-11-05T12:06:47.100Z,4.28
2022-11-05T12:10:18.076Z,4.38
2022-11-05T12:13:45.112Z,3.58
2022-11-05T12:17:41.067Z,3.13
2022-11-05T12:21:48.074Z,3.50
2022-11-05T12:25:09.080Z,2.75
2022-11-05T12:32:37.134Z,3.47
2022-11-05T12:36:30.135Z,2.85
2022-11-05T12:43:41.116Z,2.50
2022-11-05T12:47:33.101Z,3.10
2022-11-05T12:51:06.062Z,2.80
2022-11-05T12:54:47.140Z,2.88
2022-11-05T12:58:22.284Z,3.13
2022-11-05T13:01:55.232Z,3.38
2022-11-05T13:05:31.132Z,4.43
2022-11-05T13:09:12.155Z,6.00
2022-11-05T13:12:38.107Z,4.60
2022-11-05T13:16:12.119Z,3.60
2022-11-05T13:19:40.113Z,4.53
2022-11-05T13:23:17.134Z,4.15
2022-11-05T13:26:53.159Z,3.47
2022-11-05T13:30:22.137Z,3.67
2022-11-05T13:34:00.111Z,3.33
2022-11-05T13:37:42.167Z,3.08
2022-11-05T13:41:49.130Z,3.30
2022-11-05T13:45:13.152Z,2.90
2022-11-05T13:48:53.170Z,3.33
2022-11-05T13:52:53.178Z,2.90
2022-11-05T13:56:20.709Z,3.15
2022-11-05T14:00:00.171Z,2.80
2022-11-05T14:03:33.114Z,3.08
2022-11-05T14:06:56.160Z,2.67
2022-11-05T14:10:56.067Z,2.90
2022-11-05T14:14:23.187Z,3.10
2022-11-05T14:18:10.146Z,3.25
2022-11-05T14:21:42.125Z,2.80
2022-11-05T14:25:06.755Z,2.65
2022-11-05T14:28:49.527Z,2.78
2022-11-05T14:32:13.760Z,2.88
2022-11-05T14:35:58.151Z,2.80
2022-11-05T14:39:39.135Z,3.08
2022-11-05T14:43:36.737Z,2.60
2022-11-05T14:47:04.192Z,2.53
2022-11-05T14:50:57.173Z,2.83
2022-11-05T14:57:59.166Z,2.40
2022-11-05T15:01:30.623Z,2.67
2022-11-05T15:04:55.148Z,2.95
2022-11-05T15:08:47.189Z,2.33
2022-11-05T15:12:11.148Z,2.45
2022-11-05T15:15:38.163Z,2.70
2022-11-05T15:19:02.145Z,2.70
2022-11-05T15:22:58.227Z,2.42
2022-11-05T15:26:31.199Z,2.50
2022-11-05T15:29:56.704Z,2.25
2022-11-05T15:33:37.137Z,2.90
2022-11-05T15:37:35.233Z,3.13
2022-11-05T15:40:58.145Z,2.90
2022-11-05T15:44:21.189Z,3.33
2022-11-05T15:47:47.153Z,3.25
2022-11-05T15:51:10.232Z,3.83
2022-11-05T15:54:38.989Z,4.00
2022-11-05T15:58:10.194Z,4.07
2022-11-05T16:01:40.301Z,3.03
2022-11-05T16:05:04.247Z,3.22
2022-11-05T16:08:37.821Z,3.47
2022-11-05T16:12:01.225Z,3.22
2022-11-05T16:15:26.198Z,3.40
2022-11-05T16:18:52.223Z,3.30
2022-11-05T16:22:18.203Z,3.25
2022-11-05T16:25:55.315Z,3.05
2022-11-05T16:29:42.204Z,3.30
2022-11-05T16:33:06.201Z,3.45
2022-11-05T16:36:29.553Z,3.80
2022-11-05T16:39:54.910Z,3.22
2022-11-05T16:43:37.004Z,7.07
2022-11-05T16:47:04.741Z,9.23
2022-11-05T16:50:32.209Z,6.90
2022-11-05T16:53:56.191Z,5.30
2022-11-05T16:57:27.233Z,4.45
2022-11-05T17:00:52.220Z,3.70
2022-11-05T17:04:16.244Z,3.60
2022-11-05T17:07:41.497Z,3.22
2022-11-05T17:11:05.240Z,2.55
2022-11-05T17:14:28.233Z,2.50
2022-11-05T17:17:52.235Z,2.50
2022-11-05T17:21:16.229Z,2.25
2022-11-05T17:24:40.268Z,2.30
2022-11-05T17:28:03.217Z,2.80
2022-11-05T17:31:28.240Z,3.50
2022-11-05T17:34:51.232Z,4.28
2022-11-05T17:38:15.248Z,4.05
2022-11-05T17:41:39.538Z,3.90
2022-11-05T17:45:03.231Z,3.28
2022-11-05T17:48:27.241Z,3.00
2022-11-05T17:51:51.251Z,3.33
2022-11-05T17:55:24.229Z,4.30
2022-11-05T17:58:49.273Z,3.75
2022-11-05T18:02:18.312Z,3.88
2022-11-05T18:05:42.262Z,2.20
2022-11-05T18:09:06.246Z,2.20
2022-11-05T18:12:29.264Z,2.35
2022-11-05T18:15:53.264Z,2.53
2022-11-05T18:19:16.247Z,2.40
2022-11-05T18:22:48.267Z,2.65
2022-11-05T18:26:14.225Z,2.67
2022-11-05T18:29:39.077Z,3.08
2022-11-05T18:33:03.251Z,2.78
2022-11-05T18:36:39.253Z,3.40
2022-11-05T18:40:06.860Z,3.40
2022-11-05T18:43:30.265Z,3.30
2022-11-05T18:47:00.094Z,2.80
2022-11-05T18:50:24.254Z,3.10
2022-11-05T18:53:48.247Z,3.03
2022-11-05T18:57:12.298Z,2.38
2022-11-05T19:00:36.238Z,2.40
2022-11-05T19:03:54.382Z,2.75
2022-11-05T19:07:18.263Z,2.60
2022-11-05T19:10:42.278Z,2.10
2022-11-05T19:14:06.271Z,2.42
2022-11-05T19:17:30.631Z,2.00
2022-11-05T19:20:54.278Z,2.30
2022-11-05T19:24:18.301Z,2.40
2022-11-05T19:27:42.249Z,2.60
2022-11-05T19:31:06.654Z,2.50
2022-11-05T19:34:30.301Z,2.70
2022-11-05T19:37:54.281Z,2.65
2022-11-05T19:41:26.298Z,2.70
2022-11-05T19:44:51.303Z,3.20
2022-11-05T19:48:19.396Z,3.17
2022-11-05T19:51:46.287Z,3.35
2022-11-05T19:55:12.164Z,3.03
2022-11-05T19:58:36.281Z,2.90
2022-11-05T20:01:59.444Z,3.30
2022-11-05T20:05:23.290Z,3.03
2022-11-05T20:09:19.525Z,3.03
2022-11-05T20:12:31.284Z,2.80
2022-11-05T20:15:57.251Z,2.50
2022-11-05T20:19:24.275Z,2.72
2022-11-05T20:22:48.327Z,3.00
2022-11-05T20:26:12.310Z,2.80
2022-11-05T20:29:36.329Z,2.72
2022-11-05T20:33:00.266Z,2.38
2022-11-05T20:36:27.322Z,2.38
2022-11-05T20:39:52.294Z,2.38
2022-11-05T20:43:17.249Z,2.28
2022-11-05T20:46:41.318Z,2.10
2022-11-05T20:50:06.316Z,1.90
2022-11-05T20:53:30.902Z,1.58
2022-11-05T20:56:54.330Z,1.40
2022-11-05T21:00:20.302Z,1.20
2022-11-05T21:03:44.977Z,0.90
2022-11-05T21:07:09.302Z,1.02
2022-11-05T21:10:33.974Z,0.90
2022-11-05T21:13:58.349Z,0.80
2022-11-05T21:17:23.298Z,1.00
2022-11-05T21:20:46.364Z,0.77
2022-11-05T21:24:11.313Z,0.70
2022-11-05T21:27:36.471Z,0.80
2022-11-05T21:31:02.295Z,0.85
2022-11-05T21:34:27.447Z,0.90
2022-11-05T21:37:51.521Z,0.90
2022-11-05T21:41:20.365Z,0.90
2022-11-05T21:44:44.335Z,1.10
2022-11-05T21:48:08.314Z,1.10
2022-11-05T21:51:50.983Z,1.20
2022-11-05T21:55:34.364Z,1.58
2022-11-05T21:59:11.385Z,1.20
2022-11-05T22:02:31.480Z,1.30
2022-11-05T22:05:55.332Z,1.20
2022-11-05T22:09:19.351Z,1.48
2022-11-05T22:12:42.346Z,1.15
2022-11-05T22:16:12.357Z,1.27
2022-11-05T22:19:36.341Z,1.38
2022-11-05T22:23:01.371Z,1.70
2022-11-05T22:26:25.353Z,1.80
2022-11-05T22:29:48.365Z,1.35
2022-11-05T22:33:13.340Z,1.50
2022-11-05T22:36:37.355Z,1.30
2022-11-05T22:40:01.332Z,1.40
2022-11-05T22:43:25.369Z,1.42
2022-11-05T22:46:48.710Z,1.50
2022-11-05T22:50:14.463Z,1.73
2022-11-05T22:53:37.379Z,1.40
2022-11-05T22:57:01.352Z,1.40
2022-11-05T23:00:31.368Z,1.70
2022-11-05T23:03:57.323Z,1.38
2022-11-05T23:07:39.418Z,1.75
2022-11-05T23:11:37.427Z,1.63
2022-11-05T23:15:01.392Z,1.70
2022-11-05T23:18:43.393Z,1.80
2022-11-05T23:22:25.401Z,1.60
2022-11-05T23:25:50.942Z,1.50
2022-11-05T23:29:15.381Z,1.67
2022-11-05T23:32:39.437Z,2.00
2022-11-05T23:36:21.354Z,1.63
2022-11-05T23:39:44.400Z,2.58
2022-11-05T23:43:26.407Z,3.17
2022-11-05T23:47:08.464Z,3.33
2022-11-05T23:50:35.617Z,2.28
2022-11-05T23:54:03.409Z,2.05
2022-11-05T23:57:27.016Z,2.10
